Time;durP1;ratioP1;P1;durP2;ratioP2;P2;SDS_P1;SDS_P2;PMS_P1;PMS_P2;Temp;Humidity;BMP_temperature;BMP_pressure;BME280_temperature;BME280_humidity;BME280_pressure;Samples;Min_cycle;Max_cycle;Signal;HPM_P1;HPM_P2
2022/01/31 00:02:04;;;;;;;50.15;34.58;;;3.30;81.10;;;;;;10751861;33;20033;-74
2022/01/31 00:08:06;;;;;;;60.90;37.80;;;3.40;81.20;;;;;;10752597;33;20043;-73
2022/01/31 00:14:17;;;;;;;63.63;45.72;;;3.30;81.00;;;;;;10752271;33;20079;-73
2022/01/31 00:20:19;;;;;;;53.92;35.85;;;3.40;81.10;;;;;;10802004;32;20055;-73
2022/01/31 00:26:22;;;;;;;44.17;31.75;;;3.40;80.80;;;;;;10752068;33;20043;-74
2022/01/31 00:32:25;;;;;;;48.17;33.38;;;3.20;80.90;;;;;;10747884;33;20020;-74
2022/01/31 00:38:27;;;;;;;46.88;34.00;;;3.20;81.10;;;;;;10751723;33;20024;-74
2022/01/31 00:44:40;;;;;;;38.40;28.33;;;3.30;80.90;;;;;;10470505;32;12045956;-74
2022/01/31 00:50:46;;;;;;;47.38;35.25;;;3.30;80.80;;;;;;10896795;32;20031;-74
2022/01/31 00:56:50;;;;;;;53.67;36.70;;;3.30;80.80;;;;;;10900580;32;20454;-74
2022/01/31 01:02:52;;;;;;;50.45;36.67;;;3.30;80.80;;;;;;10900692;32;20023;-74
2022/01/31 01:08:56;;;;;;;44.00;29.02;;;3.20;80.60;;;;;;10852171;32;20032;-74
2022/01/31 01:14:59;;;;;;;43.13;31.40;;;3.20;80.70;;;;;;10752196;32;20062;-74
2022/01/31 01:21:01;;;;;;;38.75;27.35;;;3.20;80.70;;;;;;10757163;33;20098;-74
2022/01/31 01:27:03;;;;;;;43.85;31.77;;;3.20;81.00;;;;;;10753060;33;20402;-74
2022/01/31 01:33:19;;;;;;;47.85;34.38;;;3.20;80.90;;;;;;10756852;33;20025;-74
2022/01/31 01:39:23;;;;;;;38.33;26.42;;;3.20;81.10;;;;;;10756781;33;20025;-74
2022/01/31 01:45:25;;;;;;;54.13;36.72;;;3.10;81.10;;;;;;10810013;27;20025;-74
2022/01/31 01:51:27;;;;;;;45.92;29.83;;;3.10;81.10;;;;;;10754241;33;20024;-74
2022/01/31 01:57:29;;;;;;;35.92;26.58;;;3.00;81.00;;;;;;10756208;33;20056;-74
2022/01/31 02:03:34;;;;;;;41.37;26.30;;;2.90;81.10;;;;;;10752844;33;20059;-75
2022/01/31 02:09:56;;;;;;;50.65;32.55;;;2.70;81.30;;;;;;10755736;33;20047;-74
2022/01/31 02:15:59;;;;;;;36.28;25.15;;;2.70;81.20;;;;;;10755292;33;20055;-74
2022/01/31 02:22:02;;;;;;;41.60;29.50;;;2.70;81.20;;;;;;10755479;33;20404;-74
2022/01/31 02:28:07;;;;;;;47.55;30.83;;;2.70;81.30;;;;;;10754981;32;20028;-74
2022/01/31 02:34:09;;;;;;;42.65;29.52;;;2.70;81.20;;;;;;10755388;33;20074;-74
2022/01/31 02:40:11;;;;;;;61.45;39.40;;;2.80;81.30;;;;;;10750968;33;20035;-71
2022/01/31 02:46:13;;;;;;;42.20;29.85;;;2.90;81.40;;;;;;10754825;33;20024;-74
2022/01/31 02:52:17;;;;;;;70.40;41.92;;;3.00;81.10;;;;;;10754846;33;20427;-74
2022/01/31 02:58:20;;;;;;;50.78;33.60;;;3.00;80.90;;;;;;10754697;33;20067;-74
2022/01/31 03:04:23;;;;;;;42.80;29.15;;;2.90;80.80;;;;;;10754315;33;20032;-74
2022/01/31 03:10:26;;;;;;;49.88;32.15;;;2.90;80.90;;;;;;10754146;33;20035;-74
2022/01/31 03:16:28;;;;;;;44.30;32.28;;;2.70;81.20;;;;;;10750145;33;20029;-74
2022/01/31 03:22:34;;;;;;;45.85;32.20;;;2.70;81.10;;;;;;10750604;33;20021;-74
2022/01/31 03:28:36;;;;;;;47.83;32.42;;;2.70;81.20;;;;;;10753906;33;20032;-71
2022/01/31 03:34:38;;;;;;;48.65;30.20;;;2.60;81.20;;;;;;10799573;32;20325;-74
2022/01/31 03:40:41;;;;;;;45.75;31.25;;;2.70;81.40;;;;;;10802244;32;20055;-74
2022/01/31 03:46:43;;;;;;;39.60;30.55;;;2.90;81.30;;;;;;10753310;33;20016;-74
2022/01/31 03:52:46;;;;;;;44.53;29.55;;;2.90;81.10;;;;;;10802988;32;20048;-74
2022/01/31 03:58:48;;;;;;;45.80;30.80;;;2.70;81.00;;;;;;10752898;33;20021;-74
2022/01/31 04:04:57;;;;;;;41.42;31.20;;;2.80;81.50;;;;;;10752592;33;20032;-74
2022/01/31 04:10:58;;;;;;;78.75;48.15;;;2.90;81.40;;;;;;10752798;33;20055;-74
2022/01/31 04:17:00;;;;;;;66.47;43.97;;;2.90;81.50;;;;;;10752397;33;20052;-72
2022/01/31 04:23:08;;;;;;;72.90;47.72;;;3.20;82.20;;;;;;10748261;33;20089;-74
2022/01/31 04:29:14;;;;;;;56.78;37.03;;;3.60;82.00;;;;;;10752191;33;20040;-74
2022/01/31 04:35:16;;;;;;;53.63;34.72;;;3.70;81.10;;;;;;10751944;32;20059;-74
2022/01/31 04:41:17;;;;;;;53.42;37.72;;;3.40;80.90;;;;;;10751812;33;20055;-72
2022/01/31 04:47:18;;;;;;;61.80;42.40;;;3.30;81.60;;;;;;10801225;32;20028;-74
2022/01/31 04:53:20;;;;;;;53.92;38.95;;;3.70;81.90;;;;;;10751641;33;20075;-74
2022/01/31 04:59:22;;;;;;;61.65;40.83;;;4.10;81.40;;;;;;10747941;33;20047;-74
2022/01/31 05:05:23;;;;;;;69.75;44.50;;;4.10;80.90;;;;;;10751266;33;20009;-72
2022/01/31 05:11:25;;;;;;;54.03;37.70;;;4.30;80.70;;;;;;10801268;32;20028;-71
2022/01/31 05:17:27;;;;;;;54.90;38.00;;;4.00;80.00;;;;;;10801197;32;20020;-74
2022/01/31 05:23:46;;;;;;;75.30;44.88;;;3.90;80.70;;;;;;10801128;32;20029;-74
2022/01/31 05:29:48;;;;;;;42.03;32.42;;;3.60;80.50;;;;;;10750774;33;20048;-74
2022/01/31 05:35:49;;;;;;;44.38;32.17;;;3.70;80.70;;;;;;10750471;33;20028;-74
2022/01/31 05:41:52;;;;;;;47.78;33.45;;;3.50;80.90;;;;;;10748696;33;20055;-74
2022/01/31 05:47:54;;;;;;;54.47;37.75;;;3.60;80.70;;;;;;10746308;33;20013;-72
2022/01/31 05:53:55;;;;;;;46.42;34.40;;;3.60;80.60;;;;;;10748658;33;20035;-74
2022/01/31 05:59:57;;;;;;;50.83;35.97;;;3.80;80.90;;;;;;10801338;32;20028;-71
2022/01/31 06:05:59;;;;;;;56.40;39.05;;;4.20;80.80;;;;;;10806592;32;20349;-74
2022/01/31 06:12:16;;;;;;;56.20;38.58;;;4.20;80.10;;;;;;10755899;33;20025;-74
2022/01/31 06:18:19;;;;;;;56.60;38.03;;;4.50;79.90;;;;;;10754820;33;20024;-73
2022/01/31 06:24:21;;;;;;;48.20;34.60;;;4.50;79.40;;;;;;10805672;32;20020;-74
2022/01/31 06:30:24;;;;;;;47.03;34.00;;;4.70;79.90;;;;;;10755517;33;20021;-74
2022/01/31 06:36:27;;;;;;;55.65;35.05;;;4.70;79.40;;;;;;10755264;33;20033;-74
2022/01/31 06:42:29;;;;;;;69.65;42.58;;;4.50;79.50;;;;;;10754803;33;20435;-74
2022/01/31 06:48:31;;;;;;;50.47;33.88;;;4.50;79.30;;;;;;10754969;33;20051;-74
2022/01/31 06:54:33;;;;;;;54.35;38.25;;;4.60;79.20;;;;;;10750311;33;20028;-74
2022/01/31 07:00:35;;;;;;;56.05;38.88;;;4.30;79.10;;;;;;10804509;32;20043;-74
2022/01/31 07:06:38;;;;;;;47.38;34.55;;;4.40;80.10;;;;;;10752808;33;20311;-72
2022/01/31 07:12:41;;;;;;;51.80;33.33;;;4.70;79.60;;;;;;10749365;33;20051;-71
2022/01/31 07:18:44;;;;;;;50.25;33.70;;;4.70;79.60;;;;;;10748507;33;20055;-72
2022/01/31 07:25:01;;;;;;;61.35;41.63;;;4.80;79.60;;;;;;10750642;33;20029;-71
2022/01/31 07:31:03;;;;;;;46.10;31.92;;;5.10;79.70;;;;;;10753458;32;20021;-71
2022/01/31 07:37:05;;;;;;;64.18;42.22;;;5.30;79.50;;;;;;10797662;32;20036;-72
2022/01/31 07:43:13;;;;;;;66.75;41.83;;;5.40;79.50;;;;;;10751120;33;20111;-72
2022/01/31 07:49:15;;;;;;;54.90;38.72;;;5.50;79.70;;;;;;10751856;33;21494;-72
2022/01/31 07:55:18;;;;;;;43.85;30.58;;;5.60;79.50;;;;;;10793459;32;20036;-70
2022/01/31 08:01:20;;;;;;;43.53;29.50;;;5.70;79.40;;;;;;10799043;32;20086;-71
2022/01/31 08:07:23;;;;;;;33.70;22.37;;;5.80;79.40;;;;;;10749535;33;20056;-71
2022/01/31 08:13:25;;;;;;;32.08;21.25;;;5.90;79.00;;;;;;10798740;32;20029;-72
2022/01/31 08:19:28;;;;;;;33.10;22.95;;;5.70;78.90;;;;;;10751948;33;20044;-72
2022/01/31 08:25:35;;;;;;;24.42;17.25;;;5.30;79.30;;;;;;10746864;33;20561;-72
2022/01/31 08:31:40;;;;;;;38.75;27.02;;;5.50;80.00;;;;;;10744056;33;20032;-72
2022/01/31 08:37:42;;;;;;;33.65;20.12;;;5.70;79.50;;;;;;10801339;32;20028;-72
2022/01/31 08:43:44;;;;;;;30.67;21.65;;;5.90;79.50;;;;;;10750923;33;20428;-72
2022/01/31 08:49:49;;;;;;;31.73;22.60;;;6.10;79.00;;;;;;10748492;33;20352;-72
2022/01/31 08:56:04;;;;;;;34.95;24.55;;;6.10;78.90;;;;;;10747947;33;20029;-72
2022/01/31 09:02:13;;;;;;;36.67;23.27;;;6.20;78.70;;;;;;10750913;33;20055;-72
2022/01/31 09:08:19;;;;;;;24.33;15.13;;;6.20;78.80;;;;;;10800819;32;20302;-72
2022/01/31 09:14:21;;;;;;;25.75;19.15;;;6.20;78.30;;;;;;10747150;32;20047;-72
2022/01/31 09:20:23;;;;;;;30.50;17.17;;;5.70;78.90;;;;;;10749623;33;20056;-72
2022/01/31 09:26:26;;;;;;;27.08;18.65;;;5.80;79.50;;;;;;10748781;33;20063;-72
2022/01/31 09:32:28;;;;;;;22.42;15.15;;;6.10;79.20;;;;;;10750526;33;20043;-72
2022/01/31 09:38:30;;;;;;;23.58;16.92;;;6.20;78.80;;;;;;10756235;33;20048;-72
2022/01/31 09:44:44;;;;;;;28.77;17.87;;;6.30;78.90;;;;;;10759676;27;20401;-71
2022/01/31 09:50:46;;;;;;;24.33;13.90;;;6.40;78.50;;;;;;10807081;32;20029;-72
2022/01/31 09:56:48;;;;;;;21.65;16.12;;;6.50;78.50;;;;;;10756293;32;20029;-72
2022/01/31 10:03:10;;;;;;;25.10;16.92;;;6.40;78.60;;;;;;10756093;33;20071;-71
2022/01/31 10:09:19;;;;;;;22.30;15.05;;;6.60;78.90;;;;;;10755732;33;20029;-72
2022/01/31 10:22:03;;;;;;;21.73;12.82;;;6.40;78.20;;;;;;10756062;33;20021;-74
2022/01/31 10:28:23;;;;;;;26.65;14.70;;;5.90;79.10;;;;;;10799580;32;20025;-74
2022/01/31 10:34:27;;;;;;;18.37;12.50;;;5.60;79.80;;;;;;10806619;32;20042;-74
2022/01/31 10:53:25;;;;;;;22.75;15.00;;;5.00;80.40;;;;;;10747317;33;20056;-71
2022/01/31 10:59:38;;;;;;;24.45;17.17;;;5.30;80.70;;;;;;10715750;33;20334;-72
2022/01/31 11:05:40;;;;;;;20.77;13.93;;;5.40;80.60;;;;;;10717703;32;20095;-72
2022/01/31 11:11:46;;;;;;;24.60;16.33;;;5.30;80.40;;;;;;10717953;33;20103;-72
2022/01/31 11:17:58;;;;;;;21.92;13.38;;;5.20;80.60;;;;;;10717696;33;20440;-71
2022/01/31 11:24:03;;;;;;;21.55;14.23;;;5.20;80.90;;;;;;10778240;32;20086;-71
2022/01/31 11:30:11;;;;;;;33.53;22.08;;;5.10;80.50;;;;;;10716015;33;20055;-72
2022/01/31 11:36:13;;;;;;;33.10;20.85;;;5.20;81.00;;;;;;10776615;32;20314;-71
2022/01/31 11:42:17;;;;;;;28.40;19.65;;;5.30;80.90;;;;;;10713707;32;20033;-72
2022/01/31 11:48:22;;;;;;;32.75;24.02;;;5.40;80.90;;;;;;10712704;33;20048;-72
2022/01/31 11:54:24;;;;;;;34.78;20.48;;;5.50;80.70;;;;;;10778984;32;20062;-71
2022/01/31 12:00:28;;;;;;;37.25;24.12;;;5.60;81.00;;;;;;10764996;32;20029;-71
2022/01/31 12:06:30;;;;;;;45.72;26.65;;;5.70;80.40;;;;;;10774143;32;20063;-71
2022/01/31 12:12:52;;;;;;;28.12;20.12;;;5.70;79.80;;;;;;10712688;33;20409;-72
2022/01/31 12:19:27;;;;;;;27.80;20.20;;;5.60;80.10;;;;;;10715732;33;20043;-71
2022/01/31 12:25:31;;;;;;;29.42;20.12;;;5.60;80.60;;;;;;10715726;33;20330;-72
2022/01/31 12:31:41;;;;;;;36.42;24.33;;;5.80;80.70;;;;;;10714155;33;20048;-71
2022/01/31 12:37:51;;;;;;;36.58;23.40;;;6.60;81.00;;;;;;10774350;32;20021;-72
2022/01/31 12:43:56;;;;;;;32.60;20.85;;;6.80;80.10;;;;;;10711789;33;20398;-71
2022/01/31 12:50:24;;;;;;;26.02;17.95;;;6.80;80.00;;;;;;10739074;33;20025;-71
2022/01/31 12:56:30;;;;;;;32.47;23.33;;;7.20;80.30;;;;;;10751352;33;20059;-72
2022/01/31 13:02:32;;;;;;;39.85;26.85;;;7.70;80.40;;;;;;10747046;33;20024;-72
2022/01/31 13:08:40;;;;;;;26.58;19.42;;;8.10;79.90;;;;;;10747389;33;20040;-72
2022/01/31 13:14:52;;;;;;;28.52;17.95;;;8.40;79.80;;;;;;10816284;32;20025;-71
2022/01/31 13:20:54;;;;;;;27.60;18.42;;;8.70;79.40;;;;;;10756338;33;20059;-71
2022/01/31 13:27:00;;;;;;;28.70;19.98;;;8.70;79.80;;;;;;10756963;33;20427;-72
2022/01/31 13:33:06;;;;;;;31.50;23.02;;;9.10;79.90;;;;;;10804687;32;20028;-71
2022/01/31 13:39:20;;;;;;;20.00;15.05;;;9.50;79.30;;;;;;10756534;33;20016;-71
2022/01/31 13:45:35;;;;;;;29.25;21.77;;;9.60;78.60;;;;;;10756057;33;20350;-71
2022/01/31 13:57:42;;;;;;;25.05;17.05;;;9.30;79.70;;;;;;10755970;33;20058;-71
2022/01/31 14:03:44;;;;;;;28.38;19.52;;;9.50;79.90;;;;;;10753853;32;20051;-72
2022/01/31 14:09:46;;;;;;;26.95;19.27;;;9.40;79.50;;;;;;10743248;33;20082;-72
2022/01/31 14:15:51;;;;;;;31.37;20.98;;;9.50;80.00;;;;;;10755900;33;20325;-72
2022/01/31 14:21:56;;;;;;;26.45;16.40;;;9.70;79.80;;;;;;10751698;33;20036;-71
2022/01/31 14:27:58;;;;;;;25.45;17.73;;;9.70;79.90;;;;;;10751871;33;20428;-72
2022/01/31 14:34:06;;;;;;;36.03;19.30;;;9.80;80.00;;;;;;10755355;33;20470;-71
2022/01/31 14:52:56;;;;;;;37.00;22.25;;;10.10;80.00;;;;;;10829849;32;20393;-74
2022/01/31 14:59:00;;;;;;;30.48;19.00;;;10.30;79.70;;;;;;10825433;33;20062;-75
2022/01/31 15:05:07;;;;;;;22.25;14.75;;;10.60;78.90;;;;;;10832415;32;20062;-74
2022/01/31 15:11:09;;;;;;;20.80;14.85;;;10.70;79.40;;;;;;10828432;32;20046;-75
2022/01/31 15:17:12;;;;;;;24.90;15.68;;;10.90;79.00;;;;;;10827463;32;20023;-74
2022/01/31 15:23:14;;;;;;;28.80;18.35;;;11.20;78.70;;;;;;10746899;32;20029;-74
2022/01/31 15:29:16;;;;;;;29.60;18.08;;;11.40;78.20;;;;;;10717364;33;20052;-72
2022/01/31 15:35:18;;;;;;;27.90;18.20;;;11.00;78.00;;;;;;10717120;33;20051;-70
2022/01/31 15:41:21;;;;;;;24.58;16.23;;;10.50;78.80;;;;;;10715918;33;20083;-72
2022/01/31 15:47:23;;;;;;;23.17;15.00;;;10.20;79.20;;;;;;10715229;33;20059;-72
2022/01/31 15:53:25;;;;;;;30.70;19.15;;;9.90;79.40;;;;;;10716696;33;20055;-72
2022/01/31 15:59:28;;;;;;;19.30;13.90;;;9.70;79.60;;;;;;10716586;33;20013;-71
2022/01/31 16:05:30;;;;;;;33.35;23.80;;;9.40;79.70;;;;;;10713542;33;20059;-72
2022/01/31 16:11:32;;;;;;;35.05;25.45;;;9.10;80.10;;;;;;10766635;32;20044;-72
2022/01/31 16:17:35;;;;;;;29.25;20.62;;;9.00;80.00;;;;;;10720604;33;20361;-72
2022/01/31 16:23:38;;;;;;;30.02;19.92;;;9.10;79.60;;;;;;10752158;33;20345;-72
2022/01/31 16:29:51;;;;;;;30.15;20.77;;;8.70;79.40;;;;;;10810011;32;20299;-74
2022/01/31 16:35:53;;;;;;;42.97;27.85;;;8.00;79.90;;;;;;10749814;33;20044;-74
2022/01/31 16:41:57;;;;;;;39.63;28.52;;;7.90;80.70;;;;;;10749010;33;20025;-74
2022/01/31 16:48:00;;;;;;;43.05;32.75;;;8.30;80.30;;;;;;10746795;33;20032;-74
2022/01/31 16:54:03;;;;;;;36.72;28.77;;;8.50;79.60;;;;;;10813868;32;20033;-75
2022/01/31 17:00:08;;;;;;;40.78;28.20;;;8.60;79.20;;;;;;10812529;32;20036;-74
2022/01/31 17:06:30;;;;;;;49.40;34.78;;;8.50;78.80;;;;;;10748852;32;20401;-75
2022/01/31 17:12:33;;;;;;;48.65;33.38;;;8.60;79.10;;;;;;10726946;33;20040;-75
2022/01/31 17:18:36;;;;;;;43.63;30.70;;;8.20;78.80;;;;;;10714420;33;20032;-74
2022/01/31 17:24:39;;;;;;;36.78;28.38;;;8.20;78.70;;;;;;10732799;33;20382;-74
2022/01/31 17:30:41;;;;;;;45.60;32.30;;;7.80;78.60;;;;;;10750166;33;20060;-74
2022/01/31 17:37:13;;;;;;;56.70;41.67;;;7.70;79.70;;;;;;10750319;33;20047;-74
2022/01/31 17:43:15;;;;;;;46.40;31.62;;;7.80;79.00;;;;;;10803022;27;20032;-75
2022/01/31 17:49:18;;;;;;;58.65;39.05;;;7.90;78.90;;;;;;10749852;33;20017;-74
2022/01/31 17:55:20;;;;;;;54.08;39.30;;;7.60;79.00;;;;;;10746021;33;20295;-74
2022/01/31 18:01:23;;;;;;;38.47;28.85;;;7.40;78.80;;;;;;10750576;33;20342;-72
2022/01/31 18:07:56;;;;;;;39.78;30.10;;;7.20;79.00;;;;;;10800605;32;20029;-70
2022/01/31 18:13:59;;;;;;;35.92;28.80;;;6.80;78.80;;;;;;10753518;33;20021;-71
2022/01/31 18:20:03;;;;;;;44.33;30.98;;;6.30;79.50;;;;;;10755468;33;20244;-72
2022/01/31 18:26:05;;;;;;;42.42;29.12;;;6.10;80.20;;;;;;10753713;33;20024;-71
2022/01/31 18:32:43;;;;;;;55.88;35.72;;;5.90;80.50;;;;;;10755139;33;20294;-71
2022/01/31 18:38:48;;;;;;;40.65;30.20;;;6.00;80.00;;;;;;10746813;33;20052;-71
2022/01/31 18:44:50;;;;;;;62.35;40.75;;;5.90;80.50;;;;;;10718624;33;20394;-71
2022/01/31 18:51:05;;;;;;;78.80;46.28;;;5.90;80.70;;;;;;10718435;33;20021;-71
2022/01/31 18:57:09;;;;;;;50.63;35.40;;;5.90;80.80;;;;;;10717940;33;20075;-71
2022/01/31 19:03:34;;;;;;;51.13;35.85;;;5.90;80.50;;;;;;10767411;32;20053;-71
2022/01/31 19:09:40;;;;;;;48.28;35.47;;;5.70;80.60;;;;;;10715115;33;20021;-71
2022/01/31 19:15:44;;;;;;;53.83;36.38;;;5.60;80.70;;;;;;10764605;32;20385;-71
2022/01/31 19:21:47;;;;;;;52.30;36.63;;;5.60;81.00;;;;;;10716842;33;20037;-71
2022/01/31 19:27:51;;;;;;;53.55;33.17;;;5.70;80.80;;;;;;10778999;32;20047;-71
2022/01/31 19:33:53;;;;;;;57.70;35.83;;;5.70;80.80;;;;;;10716132;33;20021;-71
2022/01/31 19:46:06;;;;;;;67.78;44.95;;;5.50;80.70;;;;;;10713633;33;20029;-71
2022/01/31 19:52:08;;;;;;;72.00;48.40;;;5.40;80.80;;;;;;10713852;33;20292;-71
2022/01/31 19:58:10;;;;;;;62.78;41.15;;;5.30;80.60;;;;;;10713776;33;20122;-71
2022/01/31 20:04:12;;;;;;;59.53;38.40;;;5.20;80.70;;;;;;10778283;32;20095;-71
2022/01/31 20:10:22;;;;;;;56.75;35.70;;;5.20;80.60;;;;;;10713039;33;20009;-71
2022/01/31 20:16:27;;;;;;;49.58;31.20;;;5.30;80.90;;;;;;10715644;33;20063;-72
2022/01/31 20:22:29;;;;;;;42.90;29.27;;;5.50;80.90;;;;;;10710651;33;20052;-71
2022/01/31 20:28:33;;;;;;;43.30;28.62;;;5.50;80.70;;;;;;10711419;33;20055;-74
2022/01/31 20:34:36;;;;;;;48.08;33.33;;;5.60;80.40;;;;;;10777336;32;20330;-74
2022/01/31 20:47:46;;;;;;;72.47;45.85;;;5.20;80.80;;;;;;10714937;33;20210;-71
2022/01/31 20:53:49;;;;;;;83.55;50.60;;;5.20;80.70;;;;;;10714421;33;20063;-71
2022/01/31 20:59:51;;;;;;;59.67;35.97;;;5.00;80.60;;;;;;10714616;33;20329;-71
2022/01/31 21:05:57;;;;;;;62.13;36.00;;;5.00;80.70;;;;;;10714770;33;20048;-71
2022/01/31 21:11:59;;;;;;;51.65;34.45;;;5.20;81.00;;;;;;10713432;33;20386;-71
2022/01/31 21:18:02;;;;;;;38.67;24.83;;;5.30;80.90;;;;;;10714436;33;20318;-71
2022/01/31 21:24:20;;;;;;;53.90;32.88;;;5.40;80.70;;;;;;10714342;33;20020;-71
2022/01/31 21:30:24;;;;;;;54.67;35.00;;;5.30;80.80;;;;;;10715894;33;20052;-75
2022/01/31 21:36:48;;;;;;;41.75;26.50;;;5.20;80.50;;;;;;10720669;33;20048;-75
2022/01/31 21:42:50;;;;;;;42.60;25.05;;;5.10;80.60;;;;;;10770398;32;20041;-74
2022/01/31 21:48:56;;;;;;;37.00;21.35;;;5.10;81.10;;;;;;10720316;33;20086;-74
2022/01/31 21:55:14;;;;;;;45.17;27.37;;;5.20;81.00;;;;;;10720366;33;20051;-74
2022/01/31 22:01:16;;;;;;;40.20;23.42;;;5.10;81.00;;;;;;10718603;33;20021;-74
2022/01/31 22:07:18;;;;;;;47.17;32.03;;;5.10;80.80;;;;;;10719140;33;20386;-74
2022/01/31 22:13:21;;;;;;;51.53;32.65;;;5.00;81.00;;;;;;10715664;33;20047;-74
2022/01/31 22:19:24;;;;;;;64.22;38.60;;;4.90;80.80;;;;;;10717204;33;20029;-75
2022/01/31 22:25:31;;;;;;;60.50;41.37;;;4.80;80.90;;;;;;10719390;33;20047;-75
2022/01/31 22:31:35;;;;;;;83.93;50.60;;;4.70;80.60;;;;;;10769473;32;20048;-75
2022/01/31 22:37:37;;;;;;;66.43;40.78;;;4.70;80.60;;;;;;10719136;33;20025;-75
2022/01/31 22:43:40;;;;;;;68.00;45.67;;;4.70;80.30;;;;;;10718407;33;20286;-74
2022/01/31 22:50:05;;;;;;;63.78;40.42;;;4.60;80.30;;;;;;10763918;32;20048;-75
2022/01/31 22:56:07;;;;;;;50.28;34.95;;;4.60;80.20;;;;;;10718480;33;20037;-74
2022/01/31 23:02:09;;;;;;;63.38;36.65;;;4.60;80.00;;;;;;10766030;32;20337;-75
2022/01/31 23:08:11;;;;;;;64.45;39.25;;;4.50;80.10;;;;;;10767931;32;20037;-71
2022/01/31 23:14:20;;;;;;;67.85;41.25;;;4.50;79.60;;;;;;10717969;33;20432;-71
2022/01/31 23:20:44;;;;;;;;;;;4.50;79.40;;;;;;10718062;33;20033;-71
